createdAt,value
2019-04-26T00:02:24.090Z,27.37
2019-04-26T00:04:53.831Z,27.77
2019-04-26T00:07:24.717Z,26.77
2019-04-26T00:09:56.016Z,28.03
2019-04-26T00:12:30.251Z,27.70
2019-04-26T00:15:18.997Z,26.60
2019-04-26T00:17:53.036Z,25.63
2019-04-26T00:20:22.673Z,25.07
2019-04-26T00:22:52.369Z,25.83
2019-04-26T00:25:22.820Z,25.37
2019-04-26T00:27:52.533Z,26.63
2019-04-26T00:30:23.204Z,26.53
2019-04-26T00:32:52.895Z,27.30
2019-04-26T00:35:22.608Z,27.67
2019-04-26T00:37:52.344Z,28.70
2019-04-26T00:40:22.453Z,29.50
2019-04-26T00:42:52.848Z,29.57
2019-04-26T00:45:23.832Z,27.93
2019-04-26T00:47:55.170Z,28.70
2019-04-26T00:50:24.966Z,28.77
2019-04-26T00:52:55.337Z,29.93
2019-04-26T00:55:25.144Z,29.03
2019-04-26T00:57:54.765Z,27.93
2019-04-26T01:00:26.047Z,29.47
2019-04-26T01:02:56.847Z,29.83
2019-04-26T01:05:27.608Z,29.50
2019-04-26T01:07:57.889Z,30.10
2019-04-26T01:10:27.639Z,29.47
2019-04-26T01:12:57.327Z,27.87
2019-04-26T01:15:27.040Z,28.30
2019-04-26T01:17:56.669Z,30.50
2019-04-26T01:20:27.826Z,29.40
2019-04-26T01:23:00.467Z,27.50
2019-04-26T01:25:41.809Z,28.47
2019-04-26T01:28:14.487Z,29.40
2019-04-26T01:30:45.054Z,29.20
2019-04-26T01:33:14.792Z,29.00
2019-04-26T01:35:44.647Z,29.03
2019-04-26T01:38:15.947Z,30.00
2019-04-26T01:40:47.192Z,31.30
2019-04-26T01:43:20.232Z,30.97
2019-04-26T01:46:07.567Z,32.90
2019-04-26T01:48:49.104Z,33.13
2019-04-26T01:51:22.695Z,34.47
2019-04-26T01:53:53.063Z,34.73
2019-04-26T01:56:25.711Z,33.97
2019-04-26T01:58:55.319Z,33.57
2019-04-26T02:01:27.491Z,32.00
2019-04-26T02:03:57.450Z,32.30
2019-04-26T02:06:31.282Z,32.87
2019-04-26T02:08:58.521Z,31.17
2019-04-26T02:11:28.771Z,31.67
2019-04-26T02:13:58.604Z,32.60
2019-04-26T02:16:29.130Z,31.07
2019-04-26T02:18:59.220Z,32.47
2019-04-26T02:21:31.890Z,31.80
2019-04-26T02:24:18.558Z,31.40
2019-04-26T02:26:49.520Z,30.33
2019-04-26T02:29:22.287Z,30.83
2019-04-26T02:31:55.020Z,31.07
2019-04-26T02:34:27.449Z,30.77
2019-04-26T02:36:59.819Z,30.97
2019-04-26T02:39:38.338Z,30.47
2019-04-26T02:42:11.960Z,30.70
2019-04-26T02:44:49.014Z,28.40
2019-04-26T02:47:44.093Z,30.57
2019-04-26T02:50:17.221Z,29.57
2019-04-26T02:52:52.713Z,28.23
2019-04-26T02:55:52.747Z,29.80
2019-04-26T02:58:25.398Z,30.70
2019-04-26T03:00:57.302Z,30.00
2019-04-26T03:03:30.567Z,29.07
2019-04-26T03:06:01.233Z,28.43
2019-04-26T03:08:35.270Z,28.20
2019-04-26T03:11:08.158Z,28.37
2019-04-26T03:13:43.681Z,30.53
2019-04-26T03:16:18.155Z,30.60
2019-04-26T03:18:56.590Z,30.13
2019-04-26T03:21:34.105Z,29.13
2019-04-26T03:24:24.709Z,28.40
2019-04-26T03:27:00.238Z,28.90
2019-04-26T03:29:49.359Z,29.70
2019-04-26T03:32:46.087Z,28.37
2019-04-26T03:35:36.911Z,28.70
2019-04-26T03:38:16.454Z,27.43
2019-04-26T03:41:02.388Z,28.97
2019-04-26T03:43:39.122Z,28.20
2019-04-26T03:46:34.871Z,29.03
2019-04-26T03:49:16.568Z,27.80
2019-04-26T03:51:57.794Z,28.20
2019-04-26T03:54:31.000Z,29.77
2019-04-26T03:57:13.390Z,28.87
2019-04-26T03:59:46.759Z,28.60
2019-04-26T04:02:32.657Z,28.97
2019-04-26T04:05:06.936Z,27.77
2019-04-26T04:07:43.874Z,29.23
2019-04-26T04:10:15.734Z,29.00
2019-04-26T04:13:09.187Z,29.17
2019-04-26T04:15:44.054Z,28.13
2019-04-26T04:18:20.654Z,27.73
2019-04-26T04:21:16.261Z,28.13
2019-04-26T04:23:49.086Z,27.93
2019-04-26T04:26:30.709Z,27.80
2019-04-26T04:29:18.439Z,28.43
2019-04-26T04:31:56.628Z,28.23
2019-04-26T04:34:38.296Z,27.90
2019-04-26T04:37:10.881Z,27.47
2019-04-26T04:39:49.949Z,27.30
2019-04-26T04:42:30.202Z,27.93
2019-04-26T04:45:07.194Z,27.40
2019-04-26T04:47:46.118Z,26.97
2019-04-26T04:50:37.895Z,27.03
2019-04-26T04:53:13.448Z,25.20
2019-04-26T04:55:52.153Z,26.50
2019-04-26T04:58:30.792Z,26.83
2019-04-26T05:01:22.842Z,25.93
2019-04-26T05:04:08.973Z,25.37
2019-04-26T05:07:24.000Z,24.00
2019-04-26T05:10:05.323Z,25.50
2019-04-26T05:12:47.897Z,23.77
2019-04-26T05:15:39.435Z,24.33
2019-04-26T05:18:12.009Z,23.97
2019-04-26T05:20:47.258Z,24.50
2019-04-26T05:23:44.625Z,24.23
2019-04-26T05:26:40.205Z,22.63
2019-04-26T05:29:33.566Z,24.40
2019-04-26T05:32:21.063Z,23.30
2019-04-26T05:35:10.324Z,22.53
2019-04-26T05:38:00.954Z,22.50
2019-04-26T05:40:50.101Z,22.90
2019-04-26T05:43:29.919Z,22.67
2019-04-26T05:46:13.387Z,22.00
2019-04-26T05:49:03.004Z,21.40
2019-04-26T05:51:58.239Z,22.50
2019-04-26T05:55:18.035Z,21.13
2019-04-26T05:58:09.609Z,21.27
2019-04-26T06:00:59.064Z,21.10
2019-04-26T06:03:54.338Z,20.87
2019-04-26T06:06:31.000Z,20.17
2019-04-26T06:09:28.556Z,20.73
2019-04-26T06:12:08.508Z,19.57
2019-04-26T06:14:54.739Z,20.03
2019-04-26T06:17:55.882Z,20.43
2019-04-26T06:20:37.720Z,19.17
2019-04-26T06:23:28.561Z,19.00
2019-04-26T06:26:31.620Z,19.40
2019-04-26T06:29:22.560Z,18.17
2019-04-26T06:32:16.263Z,18.87
2019-04-26T06:34:57.903Z,19.17
2019-04-26T06:37:50.142Z,18.50
2019-04-26T06:40:25.128Z,18.93
2019-04-26T06:43:08.275Z,17.33
2019-04-26T06:45:48.239Z,18.43
2019-04-26T06:48:26.005Z,17.87
2019-04-26T06:51:24.307Z,18.10
2019-04-26T06:54:05.526Z,16.97
2019-04-26T06:56:42.639Z,16.83
2019-04-26T06:59:41.284Z,17.13
2019-04-26T07:02:16.722Z,18.10
2019-04-26T07:04:54.729Z,17.13
2019-04-26T07:07:53.260Z,16.43
2019-04-26T07:10:34.842Z,16.93
2019-04-26T07:13:32.867Z,15.87
2019-04-26T07:16:23.459Z,17.43
2019-04-26T07:19:22.898Z,15.87
2019-04-26T07:22:18.176Z,16.30
2019-04-26T07:25:41.160Z,16.17
2019-04-26T07:28:51.327Z,16.93
2019-04-26T07:31:38.976Z,15.93
2019-04-26T07:34:24.888Z,15.70
2019-04-26T07:37:26.173Z,15.63
2019-04-26T07:40:12.349Z,15.67
2019-04-26T07:42:58.406Z,15.50
2019-04-26T07:45:35.316Z,14.60
2019-04-26T07:48:41.088Z,15.10
2019-04-26T07:51:31.850Z,14.83
2019-04-26T07:54:22.453Z,14.40
2019-04-26T07:57:19.929Z,15.00
2019-04-26T08:00:13.986Z,14.80
2019-04-26T08:02:56.621Z,15.27
2019-04-26T08:05:39.864Z,14.20
2019-04-26T08:08:12.847Z,13.90
2019-04-26T08:10:57.378Z,15.10
2019-04-26T08:13:30.121Z,13.93
2019-04-26T08:16:16.268Z,13.40
2019-04-26T08:18:50.519Z,14.47
2019-04-26T08:21:25.795Z,13.27
2019-04-26T08:24:00.158Z,14.07
2019-04-26T08:26:32.824Z,14.07
2019-04-26T08:29:06.568Z,13.87
2019-04-26T08:31:39.446Z,14.23
2019-04-26T08:34:14.453Z,14.10
2019-04-26T08:36:47.760Z,14.00
2019-04-26T08:39:29.735Z,13.37
2019-04-26T08:41:58.438Z,14.33
2019-04-26T08:44:34.701Z,13.43
2019-04-26T08:47:21.006Z,12.97
2019-04-26T08:50:09.673Z,13.80
2019-04-26T08:52:39.138Z,12.97
2019-04-26T08:55:11.138Z,13.60
2019-04-26T08:57:43.754Z,12.33
2019-04-26T09:00:17.988Z,12.70
2019-04-26T09:03:10.933Z,13.80
2019-04-26T09:05:49.962Z,13.13
2019-04-26T09:08:22.914Z,13.93
2019-04-26T09:10:55.132Z,12.50
2019-04-26T09:13:27.772Z,13.60
2019-04-26T09:16:06.228Z,13.53
2019-04-26T09:18:42.998Z,12.13
2019-04-26T09:21:07.218Z,12.80
2019-04-26T09:23:56.864Z,12.10
2019-04-26T09:26:28.239Z,11.97
2019-04-26T09:29:15.904Z,12.40
2019-04-26T09:32:03.631Z,12.23
2019-04-26T09:34:34.995Z,12.43
2019-04-26T09:37:04.644Z,11.43
2019-04-26T09:39:35.390Z,12.37
2019-04-26T09:42:23.792Z,12.27
2019-04-26T09:44:58.001Z,11.53
2019-04-26T09:47:38.417Z,11.27
2019-04-26T09:50:11.245Z,11.40
2019-04-26T09:52:43.016Z,10.90
2019-04-26T09:55:12.888Z,10.93
2019-04-26T09:57:42.582Z,10.77
2019-04-26T10:00:16.646Z,11.17
2019-04-26T10:02:46.417Z,10.60
2019-04-26T10:05:17.705Z,10.77
2019-04-26T10:07:47.650Z,10.80
2019-04-26T10:10:23.163Z,10.37
2019-04-26T10:13:08.344Z,10.17
2019-04-26T10:18:28.984Z,10.20
2019-04-26T10:20:58.646Z,9.93
2019-04-26T10:23:28.306Z,10.87
2019-04-26T10:25:58.084Z,10.37
2019-04-26T10:28:27.729Z,10.27
2019-04-26T10:30:57.464Z,9.67
2019-04-26T10:33:27.167Z,9.53
2019-04-26T10:35:57.879Z,10.33
2019-04-26T10:38:27.687Z,9.83
2019-04-26T10:40:57.356Z,9.83
2019-04-26T10:43:29.307Z,9.70
2019-04-26T10:45:58.469Z,10.07
2019-04-26T10:48:28.221Z,9.40
2019-04-26T10:50:57.912Z,9.43
2019-04-26T10:53:30.106Z,9.10
2019-04-26T10:56:04.949Z,9.53
2019-04-26T10:58:37.761Z,9.70
2019-04-26T11:01:10.851Z,9.57
2019-04-26T11:03:40.544Z,9.30
2019-04-26T11:06:10.268Z,9.20
2019-04-26T11:08:39.986Z,9.50
2019-04-26T11:11:10.016Z,9.20
2019-04-26T11:13:39.673Z,8.60
2019-04-26T11:16:10.371Z,9.47
2019-04-26T11:18:40.000Z,9.30
2019-04-26T11:21:09.744Z,8.80
2019-04-26T11:23:41.198Z,8.97
2019-04-26T11:26:10.652Z,9.40
2019-04-26T11:28:41.997Z,8.97
2019-04-26T11:31:11.812Z,9.00
2019-04-26T11:33:44.946Z,8.57
2019-04-26T11:36:12.784Z,9.87
2019-04-26T11:38:42.478Z,9.33
2019-04-26T11:41:12.245Z,9.60
2019-04-26T11:43:41.976Z,9.10
2019-04-26T11:46:11.715Z,8.80
2019-04-26T11:48:41.381Z,9.13
2019-04-26T11:51:11.016Z,8.50
2019-04-26T11:53:44.711Z,8.97
2019-04-26T11:56:12.072Z,9.17
2019-04-26T11:58:41.726Z,8.30
2019-04-26T12:01:13.068Z,8.53
2019-04-26T12:03:44.330Z,8.83
2019-04-26T12:06:15.656Z,8.70
2019-04-26T12:08:53.050Z,9.60
2019-04-26T12:11:30.350Z,8.63
2019-04-26T12:13:55.304Z,8.67
2019-04-26T12:16:25.434Z,8.90
2019-04-26T12:18:55.047Z,8.37
2019-04-26T12:21:24.707Z,8.57
2019-04-26T12:23:55.597Z,8.37
2019-04-26T12:26:25.647Z,8.13
2019-04-26T12:28:55.286Z,8.50
2019-04-26T12:31:24.925Z,8.20
2019-04-26T12:33:54.584Z,8.77
2019-04-26T12:36:24.274Z,8.50
2019-04-26T12:38:58.312Z,8.07
2019-04-26T12:41:39.826Z,8.37
2019-04-26T12:43:59.619Z,8.93
2019-04-26T12:46:47.002Z,9.30
2019-04-26T12:49:20.280Z,8.67
2019-04-26T12:51:48.853Z,8.67
2019-04-26T12:54:19.488Z,8.57
2019-04-26T12:56:49.160Z,8.97
2019-04-26T12:59:22.332Z,8.80
2019-04-26T13:01:50.302Z,8.60
2019-04-26T13:04:19.932Z,8.77
2019-04-26T13:07:22.680Z,8.20
2019-04-26T13:09:42.340Z,8.93
2019-04-26T13:12:13.833Z,8.50
2019-04-26T13:14:54.039Z,8.37
2019-04-26T13:17:37.462Z,8.80
2019-04-26T13:20:08.176Z,9.00
2019-04-26T13:22:45.874Z,8.73
2019-04-26T13:25:15.405Z,8.47
2019-04-26T13:27:45.272Z,8.13
2019-04-26T13:30:13.312Z,8.17
2019-04-26T13:32:43.044Z,9.40
2019-04-26T13:35:13.019Z,8.13
2019-04-26T13:37:44.757Z,8.43
2019-04-26T13:40:14.178Z,9.87
2019-04-26T13:42:47.384Z,9.37
2019-04-26T13:45:22.384Z,9.33
2019-04-26T13:48:09.940Z,8.90
2019-04-26T13:50:41.162Z,8.67
2019-04-26T13:53:10.771Z,8.83
2019-04-26T13:55:52.455Z,9.10
2019-04-26T13:58:25.511Z,9.07
2019-04-26T14:00:53.476Z,9.70
2019-04-26T14:03:27.247Z,9.97
2019-04-26T14:05:54.342Z,9.13
2019-04-26T14:08:24.005Z,9.43
2019-04-26T14:10:53.677Z,9.30
2019-04-26T14:13:24.935Z,9.40
2019-04-26T14:15:55.765Z,9.30
2019-04-26T14:18:25.523Z,9.27
2019-04-26T14:20:59.043Z,10.20
2019-04-26T14:23:28.097Z,9.40
2019-04-26T14:26:01.141Z,9.27
2019-04-26T14:28:31.002Z,9.67
2019-04-26T14:31:00.677Z,9.30
2019-04-26T14:33:30.884Z,10.20
2019-04-26T14:36:01.722Z,10.40
2019-04-26T14:38:39.531Z,9.60
2019-04-26T14:41:04.019Z,10.13
2019-04-26T14:43:41.112Z,10.40
2019-04-26T14:46:05.522Z,9.30
2019-04-26T14:48:36.523Z,8.90
2019-04-26T14:51:08.143Z,10.27
2019-04-26T14:53:38.089Z,10.00
2019-04-26T14:56:07.744Z,10.07
2019-04-26T14:58:37.506Z,9.90
2019-04-26T15:01:08.818Z,10.00
2019-04-26T15:03:45.622Z,10.27
2019-04-26T15:06:20.386Z,9.80
2019-04-26T15:08:52.980Z,10.50
2019-04-26T15:11:23.061Z,9.77
2019-04-26T15:13:52.826Z,10.50
2019-04-26T15:16:24.459Z,10.47
2019-04-26T15:18:54.190Z,10.40
2019-04-26T15:21:27.355Z,10.50
2019-04-26T15:23:55.322Z,11.20
2019-04-26T15:26:29.830Z,10.60
2019-04-26T15:28:57.824Z,10.53
2019-04-26T15:31:27.408Z,10.10
2019-04-26T15:33:57.108Z,11.17
2019-04-26T15:36:26.772Z,10.70
2019-04-26T15:38:56.827Z,11.33
2019-04-26T15:41:37.144Z,10.97
2019-04-26T15:44:11.287Z,13.57
2019-04-26T15:46:57.401Z,11.57
2019-04-26T15:49:44.949Z,11.10
2019-04-26T15:52:14.680Z,11.03
2019-04-26T15:54:44.512Z,11.37
2019-04-26T15:57:14.158Z,11.53
2019-04-26T15:59:44.835Z,10.50
2019-04-26T16:02:14.534Z,11.10
2019-04-26T16:04:47.439Z,14.57
2019-04-26T16:07:26.870Z,11.43
2019-04-26T16:09:49.335Z,11.47
2019-04-26T16:12:20.293Z,11.70
2019-04-26T16:14:49.456Z,11.10
2019-04-26T16:17:19.146Z,11.83
2019-04-26T16:19:48.832Z,11.77
2019-04-26T16:22:18.488Z,11.17
2019-04-26T16:24:51.098Z,12.83
2019-04-26T16:27:19.853Z,11.87
2019-04-26T16:29:58.277Z,11.80
2019-04-26T16:32:34.586Z,11.60
2019-04-26T16:35:06.785Z,11.93
2019-04-26T16:37:36.658Z,12.60
2019-04-26T16:40:12.361Z,12.60
2019-04-26T16:42:40.993Z,11.80
2019-04-26T16:45:12.346Z,14.13
2019-04-26T16:47:48.585Z,24.10
2019-04-26T16:50:21.359Z,13.70
2019-04-26T16:52:47.725Z,12.50
2019-04-26T16:55:20.867Z,13.80
2019-04-26T16:57:54.868Z,12.27
2019-04-26T17:00:19.243Z,12.63
2019-04-26T17:02:48.896Z,12.97
2019-04-26T17:05:23.998Z,13.67
2019-04-26T17:07:49.920Z,12.47
2019-04-26T17:10:20.932Z,13.40
2019-04-26T17:12:52.307Z,13.57
2019-04-26T17:15:24.161Z,12.77
2019-04-26T17:17:53.844Z,13.93
2019-04-26T17:20:23.510Z,12.90
2019-04-26T17:23:00.815Z,12.70
2019-04-26T17:25:32.140Z,13.43
2019-04-26T17:28:03.427Z,13.13
2019-04-26T17:30:40.893Z,12.47
2019-04-26T17:33:04.478Z,13.07
2019-04-26T17:35:36.707Z,13.00
2019-04-26T17:38:05.652Z,13.80
2019-04-26T17:40:36.682Z,12.97
2019-04-26T17:43:09.715Z,13.63
2019-04-26T17:45:40.835Z,14.27
2019-04-26T17:48:11.732Z,14.27
2019-04-26T17:50:42.277Z,14.40
2019-04-26T17:53:16.158Z,13.90
2019-04-26T17:55:45.880Z,14.63
2019-04-26T17:58:17.336Z,14.33
2019-04-26T18:00:46.710Z,14.33
2019-04-26T18:03:16.679Z,15.20
2019-04-26T18:05:56.755Z,14.17
2019-04-26T18:08:35.820Z,14.57
2019-04-26T18:10:49.088Z,14.97
2019-04-26T18:13:18.828Z,14.50
2019-04-26T18:15:48.741Z,14.97
2019-04-26T18:18:23.352Z,14.90
2019-04-26T18:21:12.992Z,15.43
2019-04-26T18:23:42.522Z,14.70
2019-04-26T18:26:13.466Z,14.93
2019-04-26T18:28:46.222Z,15.57
2019-04-26T18:31:17.979Z,14.93
2019-04-26T18:33:46.716Z,15.20
2019-04-26T18:36:16.386Z,15.63
2019-04-26T18:38:48.614Z,15.53
2019-04-26T18:41:17.408Z,15.77
2019-04-26T18:43:47.163Z,15.40
2019-04-26T18:46:24.450Z,15.97
2019-04-26T18:48:54.126Z,16.57
2019-04-26T18:51:23.788Z,15.73
2019-04-26T18:54:09.339Z,14.77
2019-04-26T18:56:40.644Z,16.33
2019-04-26T18:59:11.887Z,16.43
2019-04-26T19:01:42.073Z,16.83
2019-04-26T19:04:14.297Z,15.13
2019-04-26T19:06:43.454Z,16.67
2019-04-26T19:09:13.748Z,15.43
2019-04-26T19:11:48.528Z,16.40
2019-04-26T19:14:32.884Z,16.67
2019-04-26T19:17:06.853Z,15.90
2019-04-26T19:19:56.126Z,16.60
2019-04-26T19:22:26.066Z,16.17
2019-04-26T19:24:57.482Z,16.43
2019-04-26T19:27:27.705Z,17.40
2019-04-26T19:29:57.542Z,16.17
2019-04-26T19:32:27.133Z,16.43
2019-04-26T19:35:00.788Z,17.23
2019-04-26T19:37:30.471Z,16.07
2019-04-26T19:40:02.908Z,17.23
2019-04-26T19:42:32.454Z,16.43
2019-04-26T19:45:13.902Z,16.03
2019-04-26T19:47:39.244Z,15.03
2019-04-26T19:50:11.288Z,17.00
2019-04-26T19:52:46.844Z,16.13
2019-04-26T19:55:23.828Z,16.40
2019-04-26T19:58:03.072Z,15.60
2019-04-26T20:00:32.830Z,15.90
2019-04-26T20:03:02.502Z,15.57
2019-04-26T20:05:32.228Z,15.80
2019-04-26T20:08:04.654Z,16.33
2019-04-26T20:10:34.575Z,16.27
2019-04-26T20:13:07.984Z,15.70
2019-04-26T20:15:35.692Z,15.73
2019-04-26T20:18:05.349Z,17.37
2019-04-26T20:20:36.360Z,16.40
2019-04-26T20:23:07.775Z,15.27
2019-04-26T20:25:37.376Z,14.70
2019-04-26T20:28:06.970Z,15.47
2019-04-26T20:30:47.560Z,15.70
2019-04-26T20:33:17.215Z,15.53
2019-04-26T20:35:46.822Z,15.37
2019-04-26T20:38:17.615Z,14.77
2019-04-26T20:40:48.978Z,15.10
2019-04-26T20:43:24.501Z,15.07
2019-04-26T20:46:08.900Z,16.13
2019-04-26T20:48:21.679Z,15.47
2019-04-26T20:50:52.052Z,15.40
2019-04-26T20:53:22.706Z,15.50
2019-04-26T20:55:52.807Z,15.63
2019-04-26T20:58:22.623Z,16.13
2019-04-26T21:00:54.518Z,15.80
2019-04-26T21:03:27.666Z,16.50
2019-04-26T21:05:59.287Z,16.33
2019-04-26T21:08:26.996Z,17.10
2019-04-26T21:11:00.250Z,16.23
2019-04-26T21:13:30.772Z,16.27
2019-04-26T21:16:03.431Z,16.83
2019-04-26T21:18:33.747Z,16.87
2019-04-26T21:21:05.956Z,16.17
2019-04-26T21:23:39.595Z,18.23
2019-04-26T21:26:12.388Z,19.40
2019-04-26T21:28:45.303Z,17.20
2019-04-26T21:31:22.658Z,17.97
2019-04-26T21:34:12.537Z,18.50
2019-04-26T21:36:59.556Z,19.42
2019-04-26T21:39:44.163Z,20.85
2019-04-26T21:42:17.185Z,18.97
2019-04-26T21:44:51.529Z,19.13
2019-04-26T21:47:16.648Z,18.70
2019-04-26T21:49:46.326Z,18.67
2019-04-26T21:52:15.948Z,18.70
2019-04-26T21:54:48.404Z,18.53
2019-04-26T21:57:18.337Z,18.83
2019-04-26T21:59:48.221Z,19.20
2019-04-26T22:02:18.965Z,18.30
2019-04-26T22:04:48.690Z,18.00
2019-04-26T22:07:18.435Z,18.97
2019-04-26T22:09:52.885Z,18.27
2019-04-26T22:12:23.287Z,18.63
2019-04-26T22:14:57.947Z,19.80
2019-04-26T22:17:36.362Z,18.53
2019-04-26T22:20:24.028Z,18.77
2019-04-26T22:23:04.358Z,19.33
2019-04-26T22:25:35.696Z,19.43
2019-04-26T22:28:05.364Z,20.47
2019-04-26T22:30:35.118Z,19.43
2019-04-26T22:33:04.694Z,19.53
2019-04-26T22:35:34.297Z,19.90
2019-04-26T22:38:04.130Z,19.90
2019-04-26T22:40:33.868Z,19.57
2019-04-26T22:43:16.256Z,19.87
2019-04-26T22:45:46.807Z,20.00
2019-04-26T22:48:23.130Z,20.70
2019-04-26T22:50:52.022Z,20.97
2019-04-26T22:53:21.491Z,20.27
2019-04-26T22:55:50.970Z,20.20
2019-04-26T22:58:24.939Z,20.93
2019-04-26T23:00:53.469Z,19.83
2019-04-26T23:03:24.184Z,18.90
2019-04-26T23:05:55.059Z,20.93
2019-04-26T23:08:24.765Z,20.90
2019-04-26T23:10:56.059Z,19.90
2019-04-26T23:13:27.371Z,20.67
2019-04-26T23:16:00.703Z,19.63
2019-04-26T23:18:48.124Z,19.33
2019-04-26T23:21:19.466Z,20.67
2019-04-26T23:23:49.143Z,19.70
2019-04-26T23:26:19.808Z,20.40
2019-04-26T23:28:49.411Z,19.87
2019-04-26T23:31:19.323Z,20.37
2019-04-26T23:33:49.008Z,20.70
2019-04-26T23:36:19.626Z,19.70
2019-04-26T23:38:49.247Z,20.93
2019-04-26T23:41:18.922Z,21.30
2019-04-26T23:43:48.566Z,21.60
2019-04-26T23:46:18.789Z,19.77
2019-04-26T23:48:49.774Z,20.23
2019-04-26T23:51:20.558Z,20.17
2019-04-26T23:53:50.458Z,20.63
2019-04-26T23:56:24.667Z,20.47
2019-04-26T23:58:53.176Z,21.23
